createdAt,value
2018-02-24T00:00:42.125Z,34.37
2018-02-24T00:03:09.636Z,38.37
2018-02-24T00:05:37.154Z,32.83
2018-02-24T00:08:04.697Z,34.70
2018-02-24T00:10:32.245Z,35.30
2018-02-24T00:13:00.511Z,37.30
2018-02-24T00:15:28.809Z,34.50
2018-02-24T00:17:56.321Z,34.23
2018-02-24T00:20:24.616Z,36.10
2018-02-24T00:22:52.896Z,31.10
2018-02-24T00:25:21.209Z,34.20
2018-02-24T00:27:48.710Z,36.27
2018-02-24T00:30:16.207Z,31.57
2018-02-24T00:32:43.719Z,33.57
2018-02-24T00:35:11.232Z,33.73
2018-02-24T00:37:38.757Z,32.13
2018-02-24T00:40:07.049Z,31.43
2018-02-24T00:42:34.578Z,36.93
2018-02-24T00:45:02.084Z,34.70
2018-02-24T00:47:29.612Z,37.17
2018-02-24T00:49:57.925Z,34.00
2018-02-24T00:52:25.425Z,31.90
2018-02-24T00:54:53.743Z,31.53
2018-02-24T00:57:21.296Z,34.13
2018-02-24T00:59:48.833Z,31.70
2018-02-24T01:02:17.106Z,35.03
2018-02-24T01:04:45.427Z,34.27
2018-02-24T01:07:12.927Z,33.67
2018-02-24T01:09:40.465Z,36.90
2018-02-24T01:12:07.976Z,31.20
2018-02-24T01:14:35.492Z,32.10
2018-02-24T01:17:04.607Z,31.33
2018-02-24T01:19:32.922Z,41.07
2018-02-24T01:22:00.459Z,33.60
2018-02-24T01:24:27.958Z,32.57
2018-02-24T01:26:55.455Z,33.97
2018-02-24T01:29:23.769Z,34.03
2018-02-24T01:31:51.272Z,35.22
2018-02-24T01:34:18.824Z,34.50
2018-02-24T01:36:46.323Z,36.50
2018-02-24T01:39:13.865Z,39.33
2018-02-24T01:41:42.137Z,33.37
2018-02-24T01:44:10.448Z,33.53
2018-02-24T01:46:37.944Z,35.10
2018-02-24T01:49:05.439Z,33.57
2018-02-24T01:51:33.738Z,36.37
2018-02-24T01:54:01.237Z,33.87
2018-02-24T01:56:28.748Z,32.00
2018-02-24T01:58:56.252Z,34.00
2018-02-24T02:01:23.792Z,33.60
2018-02-24T02:03:51.292Z,34.90
2018-02-24T02:06:19.596Z,33.97
2018-02-24T02:08:47.091Z,33.60
2018-02-24T02:11:14.595Z,34.00
2018-02-24T02:13:42.887Z,33.33
2018-02-24T02:16:10.409Z,31.57
2018-02-24T02:18:37.945Z,32.00
2018-02-24T02:21:05.442Z,28.57
2018-02-24T02:23:33.771Z,33.43
2018-02-24T02:26:01.282Z,34.10
2018-02-24T02:28:28.828Z,32.20
2018-02-24T02:30:57.115Z,28.40
2018-02-24T02:33:24.619Z,29.80
2018-02-24T02:35:52.169Z,31.70
2018-02-24T02:38:19.665Z,29.90
2018-02-24T02:40:47.188Z,36.10
2018-02-24T02:43:14.688Z,25.83
2018-02-24T02:45:43.301Z,29.13
2018-02-24T02:48:10.787Z,30.27
2018-02-24T02:50:38.287Z,30.93
2018-02-24T02:53:06.600Z,29.07
2018-02-24T02:55:34.107Z,35.37
2018-02-24T02:58:01.650Z,35.90
2018-02-24T03:00:30.676Z,33.77
2018-02-24T03:02:58.933Z,29.50
2018-02-24T03:05:26.447Z,33.10
2018-02-24T03:07:53.950Z,31.27
2018-02-24T03:10:22.240Z,41.20
2018-02-24T03:12:50.501Z,38.83
2018-02-24T03:15:18.033Z,33.83
2018-02-24T03:17:45.533Z,35.73
2018-02-24T03:20:13.825Z,33.73
2018-02-24T03:22:41.321Z,34.60
2018-02-24T03:25:08.841Z,33.60
2018-02-24T03:27:36.336Z,32.83
2018-02-24T03:30:03.856Z,35.60
2018-02-24T03:32:31.379Z,31.80
2018-02-24T03:34:59.692Z,36.47
2018-02-24T03:37:27.187Z,35.37
2018-02-24T03:39:54.713Z,36.10
2018-02-24T03:42:22.280Z,36.03
2018-02-24T03:44:49.788Z,31.27
2018-02-24T03:47:18.052Z,37.70
2018-02-24T03:49:45.588Z,42.23
2018-02-24T03:52:13.088Z,38.63
2018-02-24T03:54:41.395Z,36.93
2018-02-24T03:57:08.884Z,34.00
2018-02-24T03:59:36.426Z,31.07
2018-02-24T04:02:03.935Z,35.77
2018-02-24T04:04:31.474Z,39.60
2018-02-24T04:06:58.991Z,39.73
2018-02-24T04:09:26.491Z,40.33
2018-02-24T04:11:54.006Z,39.70
2018-02-24T04:14:21.500Z,38.17
2018-02-24T04:16:49.024Z,35.87
2018-02-24T04:19:16.524Z,36.67
2018-02-24T04:21:44.039Z,36.23
2018-02-24T04:24:11.537Z,38.50
2018-02-24T04:26:39.823Z,41.53
2018-02-24T04:29:08.093Z,33.80
2018-02-24T04:31:36.399Z,38.17
2018-02-24T04:34:03.912Z,38.80
2018-02-24T04:36:31.412Z,42.30
2018-02-24T04:38:58.940Z,45.30
2018-02-24T04:41:27.233Z,45.33
2018-02-24T04:43:54.771Z,41.97
2018-02-24T04:46:23.044Z,37.65
2018-02-24T04:48:52.086Z,38.03
2018-02-24T04:51:19.616Z,40.60
2018-02-24T04:53:47.157Z,46.40
2018-02-24T04:56:15.416Z,37.33
2018-02-24T04:58:42.932Z,42.70
2018-02-24T05:01:10.455Z,45.20
2018-02-24T05:03:38.724Z,39.60
2018-02-24T05:06:07.018Z,41.83
2018-02-24T05:08:34.572Z,46.78
2018-02-24T05:11:02.109Z,42.63
2018-02-24T05:13:30.385Z,40.95
2018-02-24T05:15:57.879Z,39.43
2018-02-24T05:18:25.410Z,43.03
2018-02-24T05:20:53.709Z,37.70
2018-02-24T05:23:21.216Z,40.90
2018-02-24T05:25:48.834Z,47.60
2018-02-24T05:28:16.339Z,43.50
2018-02-24T05:30:43.847Z,43.45
2018-02-24T05:33:11.368Z,43.05
2018-02-24T05:35:39.650Z,42.03
2018-02-24T05:38:07.964Z,45.05
2018-02-24T05:40:35.474Z,40.00
2018-02-24T05:43:03.735Z,41.50
2018-02-24T05:45:31.265Z,41.33
2018-02-24T05:47:58.761Z,44.63
2018-02-24T05:50:27.051Z,39.23
2018-02-24T05:52:55.327Z,41.33
2018-02-24T05:55:23.640Z,46.47
2018-02-24T05:57:51.135Z,47.05
2018-02-24T06:00:20.196Z,44.38
2018-02-24T06:02:47.716Z,49.97
2018-02-24T06:05:15.984Z,43.85
2018-02-24T06:07:44.280Z,42.30
2018-02-24T06:10:11.783Z,49.35
2018-02-24T06:12:39.316Z,47.00
2018-02-24T06:15:06.825Z,47.70
2018-02-24T06:17:35.121Z,33.78
2018-02-24T06:20:02.636Z,45.50
2018-02-24T06:22:30.167Z,45.03
2018-02-24T06:24:57.696Z,43.13
2018-02-24T06:27:25.220Z,49.38
2018-02-24T06:29:52.775Z,47.17
2018-02-24T06:32:20.294Z,42.90
2018-02-24T06:34:47.824Z,44.42
2018-02-24T06:37:15.344Z,46.53
2018-02-24T06:39:42.869Z,43.80
2018-02-24T06:42:10.393Z,42.62
2018-02-24T06:44:37.924Z,48.00
2018-02-24T06:47:05.459Z,42.22
2018-02-24T06:49:32.979Z,46.58
2018-02-24T06:52:00.500Z,47.53
2018-02-24T06:54:28.013Z,46.45
2018-02-24T06:56:55.651Z,37.53
2018-02-24T06:59:23.191Z,46.53
2018-02-24T07:01:51.488Z,43.28
2018-02-24T07:04:19.016Z,48.00
2018-02-24T07:06:47.296Z,38.95
2018-02-24T07:09:15.606Z,46.77
2018-02-24T07:11:43.125Z,47.97
2018-02-24T07:14:11.420Z,41.87
2018-02-24T07:16:38.952Z,43.30
2018-02-24T07:19:06.461Z,42.93
2018-02-24T07:21:34.010Z,46.63
2018-02-24T07:24:01.525Z,45.00
2018-02-24T07:26:29.829Z,38.42
2018-02-24T07:28:57.332Z,46.60
2018-02-24T07:31:24.848Z,37.60
2018-02-24T07:33:52.391Z,45.42
2018-02-24T07:36:20.669Z,40.87
2018-02-24T07:38:48.976Z,41.47
2018-02-24T07:41:16.476Z,43.70
2018-02-24T07:43:45.492Z,37.30
2018-02-24T07:46:13.820Z,41.30
2018-02-24T07:48:41.325Z,39.47
2018-02-24T07:51:09.672Z,41.43
2018-02-24T07:53:37.173Z,42.60
2018-02-24T07:56:04.699Z,39.35
2018-02-24T07:58:32.210Z,39.73
2018-02-24T08:00:59.732Z,39.57
2018-02-24T08:03:28.023Z,31.20
2018-02-24T08:05:55.552Z,37.77
2018-02-24T08:08:23.856Z,35.47
2018-02-24T08:10:52.136Z,40.90
2018-02-24T08:13:19.672Z,40.63
2018-02-24T08:15:47.955Z,34.83
2018-02-24T08:18:16.257Z,38.67
2018-02-24T08:20:43.772Z,38.70
2018-02-24T08:23:11.315Z,40.90
2018-02-24T08:25:38.826Z,41.10
2018-02-24T08:28:06.367Z,36.10
2018-02-24T08:30:33.931Z,33.15
2018-02-24T08:33:01.436Z,36.37
2018-02-24T08:35:28.971Z,34.73
2018-02-24T08:37:56.477Z,40.13
2018-02-24T08:40:24.784Z,40.03
2018-02-24T08:42:52.300Z,34.53
2018-02-24T08:45:19.889Z,32.10
2018-02-24T08:47:48.203Z,38.20
2018-02-24T08:50:15.700Z,33.43
2018-02-24T08:52:43.228Z,36.60
2018-02-24T08:55:10.754Z,34.90
2018-02-24T08:57:38.299Z,33.17
2018-02-24T09:00:05.806Z,30.93
2018-02-24T09:02:33.315Z,32.63
2018-02-24T09:05:00.872Z,35.80
2018-02-24T09:07:29.139Z,31.83
2018-02-24T09:09:56.701Z,28.57
2018-02-24T09:12:24.988Z,33.97
2018-02-24T09:14:52.536Z,26.40
2018-02-24T09:17:20.838Z,28.70
2018-02-24T09:19:48.388Z,28.93
2018-02-24T09:22:15.956Z,30.57
2018-02-24T09:24:43.460Z,29.77
2018-02-24T09:27:10.987Z,27.30
2018-02-24T09:29:38.507Z,29.57
2018-02-24T09:32:06.048Z,26.07
2018-02-24T09:34:34.896Z,29.87
2018-02-24T09:37:02.414Z,29.50
2018-02-24T09:39:29.977Z,26.53
2018-02-24T09:41:57.517Z,28.07
2018-02-24T09:44:25.785Z,26.03
2018-02-24T09:46:54.136Z,23.13
2018-02-24T09:49:21.637Z,23.87
2018-02-24T09:51:49.196Z,22.47
2018-02-24T09:54:16.698Z,27.67
2018-02-24T09:56:44.200Z,28.37
2018-02-24T09:59:12.516Z,26.93
2018-02-24T10:01:40.039Z,25.73
2018-02-24T10:04:08.334Z,22.93
2018-02-24T10:06:35.856Z,23.40
2018-02-24T10:09:04.129Z,22.67
2018-02-24T10:11:31.681Z,19.37
2018-02-24T10:13:59.944Z,23.03
2018-02-24T10:16:27.472Z,24.13
2018-02-24T10:18:55.078Z,23.10
2018-02-24T10:21:22.557Z,20.17
2018-02-24T10:23:50.824Z,21.10
2018-02-24T10:26:19.168Z,22.10
2018-02-24T10:28:46.656Z,19.20
2018-02-24T10:31:14.961Z,19.83
2018-02-24T10:33:42.474Z,25.67
2018-02-24T10:36:10.007Z,22.80
2018-02-24T10:38:37.511Z,17.53
2018-02-24T10:41:05.823Z,17.90
2018-02-24T10:43:33.352Z,19.30
2018-02-24T10:46:01.643Z,21.67
2018-02-24T10:48:29.223Z,15.50
2018-02-24T10:50:56.704Z,22.57
2018-02-24T10:53:24.254Z,17.13
2018-02-24T10:55:51.758Z,18.40
2018-02-24T10:58:19.572Z,21.53
2018-02-24T11:00:47.097Z,19.47
2018-02-24T11:03:14.607Z,18.47
2018-02-24T11:05:42.125Z,16.77
2018-02-24T11:08:09.684Z,19.20
2018-02-24T11:10:37.444Z,20.83
2018-02-24T11:13:04.956Z,18.80
2018-02-24T11:15:33.237Z,24.70
2018-02-24T11:18:01.533Z,18.13
2018-02-24T11:20:29.050Z,19.10
2018-02-24T11:22:56.584Z,19.67
2018-02-24T11:25:24.102Z,19.50
2018-02-24T11:27:51.661Z,21.30
2018-02-24T11:30:19.177Z,19.00
2018-02-24T11:32:46.719Z,22.43
2018-02-24T11:35:14.297Z,22.20
2018-02-24T11:37:41.793Z,18.53
2018-02-24T11:40:09.309Z,17.30
2018-02-24T11:42:36.846Z,17.90
2018-02-24T11:45:04.381Z,18.37
2018-02-24T11:47:31.904Z,19.00
2018-02-24T11:50:00.196Z,17.93
2018-02-24T11:52:27.707Z,20.40
2018-02-24T11:54:55.249Z,17.30
2018-02-24T11:57:22.772Z,15.50
2018-02-24T11:59:50.337Z,17.40
2018-02-24T12:02:18.595Z,17.87
2018-02-24T12:04:46.887Z,16.23
2018-02-24T12:07:14.447Z,16.40
2018-02-24T12:09:42.019Z,16.20
2018-02-24T12:12:09.573Z,18.40
2018-02-24T12:14:37.121Z,16.17
2018-02-24T12:17:04.707Z,16.80
2018-02-24T12:19:32.253Z,15.80
2018-02-24T12:21:59.854Z,14.23
2018-02-24T12:24:27.368Z,15.87
2018-02-24T12:26:54.919Z,16.20
2018-02-24T12:29:22.444Z,14.40
2018-02-24T12:31:50.743Z,13.50
2018-02-24T12:34:18.258Z,14.80
2018-02-24T12:36:45.821Z,15.87
2018-02-24T12:39:13.339Z,12.37
2018-02-24T12:41:40.853Z,13.80
2018-02-24T12:44:09.188Z,16.67
2018-02-24T12:46:36.729Z,15.60
2018-02-24T12:49:04.264Z,13.37
2018-02-24T12:51:31.792Z,15.60
2018-02-24T12:53:59.355Z,13.90
2018-02-24T12:56:27.635Z,14.80
2018-02-24T12:58:55.927Z,14.37
2018-02-24T13:01:24.031Z,13.80
2018-02-24T13:03:51.584Z,13.27
2018-02-24T13:06:19.140Z,15.53
2018-02-24T13:08:46.694Z,18.03
2018-02-24T13:11:14.978Z,14.97
2018-02-24T13:13:42.507Z,11.77
2018-02-24T13:16:10.032Z,14.80
2018-02-24T13:18:39.072Z,14.73
2018-02-24T13:21:06.609Z,11.27
2018-02-24T13:23:34.910Z,13.63
2018-02-24T13:26:02.444Z,14.53
2018-02-24T13:28:29.997Z,11.00
2018-02-24T13:30:58.272Z,12.00
2018-02-24T13:33:26.589Z,15.00
2018-02-24T13:35:54.101Z,15.97
2018-02-24T13:38:21.703Z,15.00
2018-02-24T13:40:49.264Z,13.90
2018-02-24T13:43:16.792Z,12.67
2018-02-24T13:45:44.573Z,14.50
2018-02-24T13:48:12.109Z,11.40
2018-02-24T13:50:40.408Z,11.00
2018-02-24T13:53:07.916Z,10.47
2018-02-24T13:55:35.454Z,12.10
2018-02-24T13:58:02.963Z,12.57
2018-02-24T14:00:30.475Z,12.30
2018-02-24T14:02:58.014Z,11.40
2018-02-24T14:05:25.538Z,11.60
2018-02-24T14:07:53.063Z,13.17
2018-02-24T14:10:20.620Z,12.00
2018-02-24T14:12:48.124Z,10.40
2018-02-24T14:15:15.653Z,14.67
2018-02-24T14:17:43.946Z,10.50
2018-02-24T14:20:11.468Z,9.90
2018-02-24T14:22:38.980Z,9.87
2018-02-24T14:25:06.518Z,10.47
2018-02-24T14:27:34.022Z,10.23
2018-02-24T14:30:01.570Z,11.27
2018-02-24T14:32:29.095Z,15.13
2018-02-24T14:34:56.629Z,10.90
2018-02-24T14:37:24.909Z,10.00
2018-02-24T14:39:53.196Z,10.00
2018-02-24T14:42:21.504Z,11.10
2018-02-24T14:44:49.030Z,11.40
2018-02-24T14:47:16.563Z,11.13
2018-02-24T14:49:44.833Z,10.97
2018-02-24T14:52:12.380Z,10.57
2018-02-24T14:54:39.897Z,11.10
2018-02-24T14:57:07.456Z,9.33
2018-02-24T14:59:35.004Z,12.63
2018-02-24T15:02:02.507Z,10.53
2018-02-24T15:04:30.057Z,9.03
2018-02-24T15:06:57.588Z,11.13
2018-02-24T15:09:25.131Z,11.10
2018-02-24T15:11:52.642Z,11.97
2018-02-24T15:14:20.161Z,11.70
2018-02-24T15:16:47.700Z,11.83
2018-02-24T15:19:15.237Z,10.83
2018-02-24T15:21:43.523Z,12.20
2018-02-24T15:24:11.843Z,11.73
2018-02-24T15:26:40.328Z,10.13
2018-02-24T15:29:08.838Z,9.13
2018-02-24T15:31:37.012Z,11.20
2018-02-24T15:34:04.513Z,9.13
2018-02-24T15:36:32.082Z,9.07
2018-02-24T15:38:59.608Z,9.60
2018-02-24T15:41:27.228Z,9.30
2018-02-24T15:43:54.736Z,8.93
2018-02-24T15:46:22.241Z,9.37
2018-02-24T15:48:49.769Z,10.40
2018-02-24T15:51:17.312Z,12.07
2018-02-24T15:53:44.831Z,10.87
2018-02-24T15:56:12.375Z,11.50
2018-02-24T15:58:39.923Z,11.10
2018-02-24T16:01:07.486Z,12.40
2018-02-24T16:03:34.996Z,13.50
2018-02-24T16:06:03.285Z,10.63
2018-02-24T16:08:30.830Z,14.40
2018-02-24T16:10:58.336Z,11.73
2018-02-24T16:13:25.868Z,12.97
2018-02-24T16:15:53.384Z,8.73
2018-02-24T16:18:21.680Z,8.87
2018-02-24T16:20:49.210Z,10.90
2018-02-24T16:23:16.808Z,11.60
2018-02-24T16:25:44.338Z,13.17
2018-02-24T16:28:12.650Z,11.83
2018-02-24T16:30:40.172Z,11.97
2018-02-24T16:33:08.453Z,10.77
2018-02-24T16:35:36.763Z,13.70
2018-02-24T16:38:04.306Z,10.33
2018-02-24T16:40:31.843Z,12.73
2018-02-24T16:43:00.127Z,12.43
2018-02-24T16:45:27.667Z,13.67
2018-02-24T16:47:55.204Z,12.80
2018-02-24T16:50:22.723Z,11.30
2018-02-24T16:52:50.267Z,11.70
2018-02-24T16:55:17.780Z,14.53
2018-02-24T16:57:45.301Z,15.03
2018-02-24T17:00:12.856Z,11.67
2018-02-24T17:02:40.359Z,11.60
2018-02-24T17:05:08.666Z,14.40
2018-02-24T17:07:37.000Z,14.13
2018-02-24T17:10:04.515Z,10.77
2018-02-24T17:12:32.077Z,12.77
2018-02-24T17:14:59.657Z,9.57
2018-02-24T17:17:27.164Z,12.37
2018-02-24T17:19:55.452Z,9.27
2018-02-24T17:22:23.024Z,9.07
2018-02-24T17:24:50.526Z,7.77
2018-02-24T17:27:18.845Z,8.40
2018-02-24T17:29:46.348Z,7.70
2018-02-24T17:32:13.881Z,7.70
2018-02-24T17:34:41.389Z,7.50
2018-02-24T17:37:08.916Z,7.37
2018-02-24T17:39:36.421Z,8.13
2018-02-24T17:42:04.733Z,12.20
2018-02-24T17:44:33.210Z,6.90
2018-02-24T17:47:00.768Z,5.80
2018-02-24T17:49:28.303Z,7.33
2018-02-24T17:51:55.804Z,5.83
2018-02-24T17:54:23.354Z,9.70
2018-02-24T17:56:50.882Z,9.47
2018-02-24T17:59:18.454Z,6.37
2018-02-24T18:01:45.969Z,8.03
2018-02-24T18:04:14.265Z,7.17
2018-02-24T18:06:42.577Z,6.40
2018-02-24T18:09:10.132Z,10.40
2018-02-24T18:11:37.660Z,8.10
2018-02-24T18:14:05.173Z,9.67
2018-02-24T18:16:32.710Z,12.53
2018-02-24T18:19:00.209Z,13.00
2018-02-24T18:21:28.529Z,10.77
2018-02-24T18:23:56.104Z,10.67
2018-02-24T18:26:23.657Z,11.47
2018-02-24T18:28:51.184Z,11.40
2018-02-24T18:31:18.738Z,10.37
2018-02-24T18:33:47.015Z,10.50
2018-02-24T18:36:15.312Z,12.40
2018-02-24T18:38:42.868Z,14.57
2018-02-24T18:41:10.364Z,13.17
2018-02-24T18:43:37.893Z,11.50
2018-02-24T18:46:05.404Z,11.80
2018-02-24T18:48:33.751Z,12.77
2018-02-24T18:51:01.256Z,13.53
2018-02-24T18:53:28.761Z,9.50
2018-02-24T18:55:56.318Z,12.30
2018-02-24T18:58:23.828Z,11.40
2018-02-24T19:00:51.369Z,13.73
2018-02-24T19:03:19.641Z,12.63
2018-02-24T19:05:47.974Z,10.97
2018-02-24T19:08:15.475Z,11.57
2018-02-24T19:10:43.805Z,13.23
2018-02-24T19:13:11.323Z,9.67
2018-02-24T19:15:39.620Z,8.73
2018-02-24T19:18:07.158Z,10.33
2018-02-24T19:20:35.440Z,11.67
2018-02-24T19:23:03.012Z,13.50
2018-02-24T19:25:30.543Z,9.90
2018-02-24T19:27:58.861Z,11.33
2018-02-24T19:30:26.385Z,10.53
2018-02-24T19:32:54.687Z,10.40
2018-02-24T19:35:22.219Z,11.87
2018-02-24T19:37:50.550Z,11.03
2018-02-24T19:40:18.051Z,11.07
2018-02-24T19:42:46.354Z,9.30
2018-02-24T19:45:13.927Z,9.33
2018-02-24T19:47:41.450Z,10.23
2018-02-24T19:50:09.720Z,10.77
2018-02-24T19:52:38.027Z,9.23
2018-02-24T19:55:05.606Z,9.50
2018-02-24T19:57:33.143Z,9.20
2018-02-24T20:00:00.645Z,10.07
2018-02-24T20:02:28.205Z,10.17
2018-02-24T20:04:55.706Z,11.47
2018-02-24T20:07:23.243Z,8.70
2018-02-24T20:09:51.532Z,10.03
2018-02-24T20:12:19.060Z,11.20
2018-02-24T20:14:47.358Z,9.43
2018-02-24T20:17:14.874Z,10.10
2018-02-24T20:19:42.414Z,10.30
2018-02-24T20:22:09.919Z,6.53
2018-02-24T20:24:38.260Z,9.27
2018-02-24T20:27:05.768Z,8.30
2018-02-24T20:29:33.317Z,7.73
2018-02-24T20:32:01.629Z,10.70
2018-02-24T20:34:29.132Z,9.50
2018-02-24T20:36:56.667Z,10.07
2018-02-24T20:39:24.164Z,7.93
2018-02-24T20:41:52.479Z,9.40
2018-02-24T20:44:19.991Z,10.00
2018-02-24T20:46:48.282Z,6.93
2018-02-24T20:49:16.606Z,9.60
2018-02-24T20:51:44.116Z,11.73
2018-02-24T20:54:12.424Z,9.20
2018-02-24T20:56:39.945Z,8.60
2018-02-24T20:59:08.234Z,7.60
2018-02-24T21:01:35.753Z,7.93
2018-02-24T21:04:03.282Z,10.10
2018-02-24T21:06:30.802Z,8.70
2018-02-24T21:08:58.332Z,9.53
2018-02-24T21:11:25.878Z,10.97
2018-02-24T21:13:53.369Z,9.60
2018-02-24T21:16:21.669Z,9.27
2018-02-24T21:18:49.213Z,11.83
2018-02-24T21:21:16.732Z,13.90
2018-02-24T21:23:44.296Z,9.97
2018-02-24T21:26:11.851Z,10.10
2018-02-24T21:28:39.349Z,10.23
2018-02-24T21:31:06.898Z,9.77
2018-02-24T21:33:35.210Z,11.07
2018-02-24T21:36:02.771Z,8.63
2018-02-24T21:38:30.312Z,9.80
2018-02-24T21:40:57.811Z,11.00
2018-02-24T21:43:25.363Z,9.00
2018-02-24T21:45:52.869Z,9.43
2018-02-24T21:48:20.433Z,10.60
2018-02-24T21:50:47.953Z,9.18
2018-02-24T21:53:15.476Z,11.97
2018-02-24T21:55:43.022Z,10.23
2018-02-24T21:58:10.539Z,7.63
2018-02-24T22:00:38.860Z,14.60
2018-02-24T22:03:06.379Z,9.30
2018-02-24T22:05:34.699Z,9.15
2018-02-24T22:08:02.216Z,11.00
2018-02-24T22:10:30.532Z,7.17
2018-02-24T22:12:58.044Z,8.20
2018-02-24T22:15:26.332Z,9.63
2018-02-24T22:17:53.874Z,11.83
2018-02-24T22:20:21.388Z,9.25
2018-02-24T22:22:48.921Z,7.60
2018-02-24T22:25:16.445Z,8.52
2018-02-24T22:27:44.762Z,9.23
2018-02-24T22:30:12.280Z,8.27
2018-02-24T22:32:40.614Z,8.40
2018-02-24T22:35:08.140Z,8.68
2018-02-24T22:37:35.680Z,11.82
2018-02-24T22:40:03.228Z,11.37
2018-02-24T22:42:31.515Z,8.23
2018-02-24T22:44:59.070Z,9.20
2018-02-24T22:47:32.350Z,8.15
2018-02-24T22:50:00.661Z,9.67
2018-02-24T22:52:28.180Z,8.85
2018-02-24T22:54:55.728Z,11.70
2018-02-24T22:57:23.237Z,9.37
2018-02-24T22:59:50.748Z,11.00
2018-02-24T23:02:18.293Z,9.23
2018-02-24T23:04:46.585Z,8.13
2018-02-24T23:07:14.918Z,7.68
2018-02-24T23:09:42.437Z,8.35
2018-02-24T23:12:09.944Z,8.63
2018-02-24T23:14:37.490Z,7.57
2018-02-24T23:17:05.052Z,7.80
2018-02-24T23:19:32.564Z,8.80
2018-02-24T23:22:00.100Z,6.53
2018-02-24T23:24:27.632Z,6.82
2018-02-24T23:26:55.160Z,8.23
2018-02-24T23:29:23.334Z,7.62
2018-02-24T23:31:50.857Z,8.90
2018-02-24T23:34:19.140Z,8.07
2018-02-24T23:36:47.449Z,13.30
2018-02-24T23:39:14.975Z,8.57
2018-02-24T23:41:43.268Z,9.50
2018-02-24T23:44:10.781Z,7.47
2018-02-24T23:46:38.352Z,9.40
2018-02-24T23:49:05.916Z,9.23
2018-02-24T23:51:34.508Z,10.68
2018-02-24T23:54:02.790Z,11.32
2018-02-24T23:56:30.321Z,7.70
2018-02-24T23:58:57.868Z,8.88
